Airport Name : Kerman

Other Name : Kerman

ICAO : OIKK

IATA : KER

FAA :

Latitude : 30.274444

Longitude : 56.951111

Country : Iran

Local Date and Time : 22 May 2024 23:51

 

TAF (Terminal Aerodrome Forecast)

TAF OIKK 221715Z 2218/2324 30012KT 7000 FEW035TCU BECMG 2220/2221 21006KT NSC PROB40 TEMPO 2301/2305 4000 HZ BECMG 2307/2309 27010KT TEMPO 2309/2317 30022KT 4000 SA/DU FEW035CB SCT100 BECMG 2319/2321 36006KT

 

METAR (METeorological Aerodrome Report)

OIKK 222000Z 34004KT 9999 FEW100 22/02 Q1016 A3001

OIKK 221950Z 34004KT 9999 FEW100 22/02 Q1016 A3001

OIKK 221900Z 34006KT 7000 FEW100 23/02 Q1016 A3002

OIKK 221850Z 34006KT 7000 FEW100 23/02 Q1016 A3002

OIKK 221800Z 34006KT 7000 NSC 25/00 Q1016 A3002

OIKK 221750Z 34006KT 7000 NSC 25/00 Q1016 A3002

OIKK 221700Z 34006KT 7000 NSC 25/00 Q1016 A3002

OIKK 221650Z 34006KT 7000 NSC 25/00 Q1016 A3002